Time;durP1;ratioP1;P1;durP2;ratioP2;P2;SDS_P1;SDS_P2;PMS_P1;PMS_P2;Temp;Humidity;BMP_temperature;BMP_pressure;BME280_temperature;BME280_humidity;BME280_pressure;Samples;Min_cycle;Max_cycle;Signal;HPM_P1;HPM_P2
2022/09/28 00:01:50;;;;;;;1.27;0.50;;;9.90;99.90;;;;;;4987676;28;20089;-74
2022/09/28 00:04:16;;;;;;;4.07;0.45;;;9.80;99.90;;;;;;4987524;28;20077;-74
2022/09/28 00:06:43;;;;;;;1.30;0.40;;;9.80;99.90;;;;;;4987815;28;20038;-75
2022/09/28 00:09:09;;;;;;;0.77;0.73;;;9.80;99.90;;;;;;4987416;28;20030;-75
2022/09/28 00:11:35;;;;;;;4.22;0.82;;;9.70;99.90;;;;;;4987239;28;20058;-75
2022/09/28 00:14:02;;;;;;;0.45;0.45;;;9.70;99.90;;;;;;4987507;28;20049;-75
2022/09/28 00:16:33;;;;;;;2.33;1.02;;;9.60;99.90;;;;;;4988019;28;20036;-74
2022/09/28 00:18:59;;;;;;;0.80;0.57;;;9.60;99.90;;;;;;4986761;28;20031;-74
2022/09/28 00:21:30;;;;;;;1.23;0.55;;;9.60;99.90;;;;;;4987588;28;20495;-75
2022/09/28 00:26:52;;;;;;;0.88;0.38;;;9.60;99.90;;;;;;4987546;28;20598;-75
2022/09/28 00:29:32;;;;;;;3.00;0.90;;;9.60;99.90;;;;;;5001960;28;20022;-75
2022/09/28 00:32:02;;;;;;;1.10;1.00;;;9.60;99.90;;;;;;4986774;28;20042;-75
2022/09/28 00:34:32;;;;;;;0.85;0.52;;;9.70;99.90;;;;;;5002221;28;20030;-74
2022/09/28 00:36:59;;;;;;;1.35;0.60;;;9.70;99.90;;;;;;4987100;28;20785;-75
2022/09/28 00:39:25;;;;;;;1.55;0.35;;;9.70;99.90;;;;;;4986853;28;20046;-74
2022/09/28 00:41:52;;;;;;;0.40;0.40;;;9.80;99.90;;;;;;4987021;28;20033;-75
2022/09/28 00:44:24;;;;;;;0.73;0.73;;;9.70;99.90;;;;;;4987291;28;20101;-75
2022/09/28 00:46:57;;;;;;;1.20;0.73;;;9.70;99.90;;;;;;4987942;28;20046;-74
2022/09/28 00:49:51;;;;;;;0.30;0.30;;;9.70;99.90;;;;;;4987475;28;20506;-74
2022/09/28 00:52:39;;;;;;;0.85;0.77;;;9.70;99.90;;;;;;4987348;28;20524;-74
2022/09/28 00:55:10;;;;;;;0.90;0.90;;;9.70;99.90;;;;;;4987346;28;20133;-75
2022/09/28 00:57:39;;;;;;;7.90;0.60;;;9.70;99.90;;;;;;4987008;28;20033;-74
2022/09/28 01:00:07;;;;;;;3.95;0.47;;;9.70;99.90;;;;;;4986363;28;20443;-77
2022/09/28 01:02:32;;;;;;;0.68;0.52;;;9.60;99.90;;;;;;4986916;28;20102;-75
2022/09/28 01:04:59;;;;;;;0.25;0.22;;;9.60;99.90;;;;;;4987176;28;20027;-75
2022/09/28 01:07:25;;;;;;;0.10;0.10;;;9.60;99.90;;;;;;4987213;28;20034;-74
2022/09/28 01:09:52;;;;;;;0.30;0.30;;;9.50;99.90;;;;;;4985284;28;20022;-75
2022/09/28 01:12:18;;;;;;;0.13;0.13;;;9.50;99.90;;;;;;4987132;28;20034;-75
2022/09/28 01:14:45;;;;;;;0.10;0.10;;;9.50;99.90;;;;;;4986538;28;20023;-75
2022/09/28 01:17:17;;;;;;;0.20;0.20;;;9.50;99.90;;;;;;4987658;28;20026;-75
2022/09/28 01:20:11;;;;;;;0.10;0.10;;;9.50;99.90;;;;;;4985393;28;20030;-75
2022/09/28 01:23:05;;;;;;;0.10;0.10;;;9.50;99.90;;;;;;4987568;28;20031;-75
2022/09/28 01:25:52;;;;;;;0.20;0.20;;;9.40;99.90;;;;;;4986946;28;20058;-75
2022/09/28 01:28:20;;;;;;;3.20;0.70;;;9.40;99.90;;;;;;4986795;28;20030;-75
2022/09/28 01:31:06;;;;;;;0.28;0.28;;;9.40;99.90;;;;;;4988361;28;20018;-75
2022/09/28 01:33:46;;;;;;;0.10;0.10;;;9.40;99.90;;;;;;4990323;28;20334;-75
2022/09/28 01:36:21;;;;;;;0.10;0.10;;;9.30;99.90;;;;;;4989908;28;20034;-76
2022/09/28 01:38:52;;;;;;;0.10;0.10;;;9.30;99.90;;;;;;4989999;28;20509;-74
2022/09/28 01:41:19;;;;;;;1.65;0.45;;;9.30;99.90;;;;;;4990036;28;20065;-74
2022/09/28 01:43:50;;;;;;;0.10;0.10;;;9.20;99.90;;;;;;4990104;28;20121;-75
2022/09/28 01:46:40;;;;;;;0.10;0.10;;;9.20;99.90;;;;;;4989966;28;20073;-76
2022/09/28 01:49:26;;;;;;;0.03;0.03;;;9.20;99.90;;;;;;4990294;28;20030;-74
2022/09/28 01:52:01;;;;;;;0.10;0.10;;;9.10;99.90;;;;;;4989956;28;20058;-77
2022/09/28 01:55:00;;;;;;;0.30;0.30;;;9.10;99.90;;;;;;4990119;28;20041;-78
2022/09/28 01:57:38;;;;;;;0.10;0.10;;;9.10;99.90;;;;;;4989554;28;20066;-77
2022/09/28 02:00:09;;;;;;;0.20;0.20;;;9.20;99.90;;;;;;4989796;28;20450;-75
2022/09/28 02:03:04;;;;;;;0.03;0.03;;;9.10;99.90;;;;;;4990236;28;20110;-74
2022/09/28 02:05:34;;;;;;;0.10;0.10;;;9.10;99.90;;;;;;4989743;28;20030;-75
2022/09/28 02:08:14;;;;;;;4.70;0.93;;;9.10;99.90;;;;;;4992540;28;20057;-82
2022/09/28 02:11:03;;;;;;;0.20;0.20;;;9.10;99.90;;;;;;4993986;28;20404;-78
2022/09/28 02:13:38;;;;;;;2.90;1.23;;;9.20;99.90;;;;;;4989648;28;20034;-74
2022/09/28 02:16:42;;;;;;;0.00;0.00;;;9.20;99.90;;;;;;4989966;28;20512;-76
2022/09/28 02:19:13;;;;;;;0.22;0.22;;;9.10;99.90;;;;;;4969104;28;20475;-77
2022/09/28 02:22:22;;;;;;;0.10;0.10;;;9.10;99.90;;;;;;4989892;28;20069;-76
2022/09/28 02:25:13;;;;;;;0.17;0.17;;;9.00;99.90;;;;;;4978274;28;20402;-75
2022/09/28 02:27:44;;;;;;;0.10;0.10;;;9.10;99.90;;;;;;4990384;28;20069;-75
2022/09/28 02:30:13;;;;;;;1.30;0.40;;;9.10;99.90;;;;;;4988938;28;20105;-75
2022/09/28 02:32:45;;;;;;;0.25;0.25;;;9.00;99.90;;;;;;4988738;28;20574;-75
2022/09/28 02:35:17;;;;;;;0.10;0.10;;;9.00;99.90;;;;;;4989162;28;20076;-75
2022/09/28 02:37:44;;;;;;;1.85;0.15;;;9.00;99.90;;;;;;4989743;28;20203;-76
2022/09/28 02:40:24;;;;;;;0.20;0.20;;;9.10;99.90;;;;;;4988842;28;20313;-75
2022/09/28 02:43:01;;;;;;;0.40;0.40;;;9.10;99.90;;;;;;4989063;28;20533;-75
2022/09/28 02:45:58;;;;;;;0.10;0.10;;;9.00;99.90;;;;;;4988771;28;20026;-75
2022/09/28 02:48:45;;;;;;;0.10;0.10;;;9.00;99.90;;;;;;4988778;28;20142;-75
2022/09/28 02:51:32;;;;;;;0.20;0.20;;;9.00;99.90;;;;;;4988663;28;20028;-75
2022/09/28 02:54:17;;;;;;;0.10;0.10;;;9.10;99.90;;;;;;4986928;28;20031;-75
2022/09/28 02:57:04;;;;;;;0.30;0.30;;;9.10;99.90;;;;;;4989041;28;20030;-75
2022/09/28 02:59:56;;;;;;;0.10;0.10;;;9.00;99.90;;;;;;4988053;28;20109;-75
2022/09/28 03:02:34;;;;;;;0.17;0.17;;;9.00;99.90;;;;;;4980741;28;20041;-75
2022/09/28 03:05:20;;;;;;;0.10;0.10;;;9.10;99.90;;;;;;4988806;28;20027;-75
2022/09/28 03:08:05;;;;;;;0.00;0.00;;;9.10;99.90;;;;;;4988707;28;20053;-74
2022/09/28 03:11:01;;;;;;;0.73;0.17;;;9.20;99.90;;;;;;4987876;28;20025;-75
2022/09/28 03:13:27;;;;;;;0.30;0.30;;;9.10;99.90;;;;;;4988188;28;20254;-74
2022/09/28 03:16:10;;;;;;;0.52;0.52;;;9.10;99.90;;;;;;4988436;28;20033;-76
2022/09/28 03:18:35;;;;;;;0.20;0.20;;;9.10;99.90;;;;;;4988416;28;20023;-75
2022/09/28 03:21:04;;;;;;;1.45;0.95;;;9.00;99.90;;;;;;4988303;28;20490;-74
2022/09/28 03:23:33;;;;;;;0.47;0.47;;;9.10;99.90;;;;;;4988063;28;20410;-76
2022/09/28 03:26:01;;;;;;;0.57;0.57;;;9.00;99.90;;;;;;4988238;28;20034;-75
2022/09/28 03:28:30;;;;;;;1.05;0.98;;;9.00;99.90;;;;;;4988472;28;20031;-75
2022/09/28 03:30:56;;;;;;;0.10;0.10;;;9.00;99.90;;;;;;4987892;28;20030;-75
2022/09/28 03:33:22;;;;;;;0.15;0.15;;;9.00;99.90;;;;;;4987981;28;20089;-75
2022/09/28 03:35:49;;;;;;;0.80;0.30;;;9.00;99.90;;;;;;5002963;28;20095;-76
2022/09/28 03:38:17;;;;;;;3.08;1.20;;;9.00;99.90;;;;;;4988128;28;20041;-75
2022/09/28 03:40:42;;;;;;;0.20;0.20;;;9.10;99.90;;;;;;4987631;28;20379;-75
2022/09/28 03:43:11;;;;;;;0.95;0.30;;;9.00;99.90;;;;;;4987550;28;20018;-75
2022/09/28 03:45:40;;;;;;;0.10;0.10;;;9.00;99.90;;;;;;4987242;28;20069;-75
2022/09/28 03:48:06;;;;;;;0.20;0.20;;;9.00;99.90;;;;;;4987948;28;20467;-75
2022/09/28 03:50:31;;;;;;;0.55;0.43;;;9.00;99.90;;;;;;4987524;28;20093;-75
2022/09/28 03:53:01;;;;;;;0.10;0.10;;;9.10;99.90;;;;;;4986999;28;20026;-75
2022/09/28 03:55:27;;;;;;;0.10;0.10;;;9.10;99.90;;;;;;4988550;28;20023;-76
2022/09/28 03:57:56;;;;;;;0.10;0.10;;;9.10;99.90;;;;;;4988895;28;20036;-75
2022/09/28 04:00:22;;;;;;;3.85;0.30;;;9.10;99.90;;;;;;4987478;28;20062;-75
2022/09/28 04:02:48;;;;;;;0.65;0.20;;;9.20;99.90;;;;;;4987704;28;20026;-75
2022/09/28 04:05:16;;;;;;;4.95;0.28;;;9.10;99.90;;;;;;4987149;28;20030;-75
2022/09/28 04:07:48;;;;;;;0.08;0.08;;;9.10;99.90;;;;;;4987869;28;20046;-76
2022/09/28 04:10:14;;;;;;;0.22;0.22;;;9.10;99.90;;;;;;4987267;28;20278;-75
2022/09/28 04:12:40;;;;;;;0.20;0.20;;;9.10;99.90;;;;;;4987961;28;20263;-76
2022/09/28 04:15:06;;;;;;;0.20;0.20;;;10.60;99.90;;;;;;5002455;28;20027;-76
2022/09/28 04:17:33;;;;;;;0.10;0.10;;;9.10;99.90;;;;;;4987473;28;20026;-77
2022/09/28 04:19:58;;;;;;;1.90;0.10;;;9.20;99.90;;;;;;4987002;28;20045;-75
2022/09/28 04:22:24;;;;;;;0.70;0.28;;;9.10;99.90;;;;;;4987854;28;20491;-74
2022/09/28 04:24:53;;;;;;;0.57;0.57;;;9.10;99.90;;;;;;4987589;28;20050;-75
2022/09/28 04:30:06;;;;;;;0.68;0.52;;;9.20;99.90;;;;;;4987247;28;20406;-74
2022/09/28 04:32:35;;;;;;;3.22;1.10;;;9.10;99.90;;;;;;4986690;28;20056;-75
2022/09/28 04:35:01;;;;;;;0.05;0.05;;;9.10;99.90;;;;;;4987088;28;20026;-75
2022/09/28 04:37:30;;;;;;;0.30;0.30;;;9.10;99.90;;;;;;4985866;28;20019;-75
2022/09/28 04:39:56;;;;;;;0.03;0.03;;;9.10;99.90;;;;;;4985955;28;20557;-75
2022/09/28 04:42:21;;;;;;;0.20;0.20;;;9.20;99.90;;;;;;4986284;28;20039;-76
2022/09/28 04:44:47;;;;;;;0.20;0.20;;;9.20;99.90;;;;;;4985585;28;20030;-75
2022/09/28 04:47:13;;;;;;;0.57;0.57;;;9.20;99.90;;;;;;4985936;28;20034;-75
2022/09/28 04:49:39;;;;;;;0.35;0.25;;;9.30;99.90;;;;;;4985343;28;20026;-75
2022/09/28 04:52:05;;;;;;;3.97;0.68;;;9.20;99.90;;;;;;4985836;28;20018;-75
2022/09/28 04:54:31;;;;;;;0.20;0.20;;;9.40;99.90;;;;;;4985671;28;20030;-75
2022/09/28 04:56:57;;;;;;;1.45;1.17;;;9.30;99.90;;;;;;4985684;28;20045;-75
2022/09/28 04:59:23;;;;;;;0.45;0.35;;;9.30;99.90;;;;;;4986525;28;20022;-76
2022/09/28 05:02:01;;;;;;;0.98;0.98;;;9.20;99.90;;;;;;4987637;28;20031;-75
2022/09/28 05:04:27;;;;;;;1.05;0.60;;;9.40;99.90;;;;;;4988605;28;20023;-75
2022/09/28 05:06:52;;;;;;;0.60;0.60;;;9.40;99.90;;;;;;4992224;28;20041;-76
2022/09/28 05:09:18;;;;;;;1.00;1.00;;;9.40;99.90;;;;;;4991454;28;20039;-74
2022/09/28 05:11:44;;;;;;;0.60;0.60;;;9.40;99.90;;;;;;4991122;28;20026;-76
2022/09/28 05:14:11;;;;;;;1.95;1.20;;;9.50;99.90;;;;;;4990297;28;20552;-76
2022/09/28 05:16:37;;;;;;;0.95;0.90;;;9.40;99.90;;;;;;5005446;28;20034;-77
2022/09/28 05:19:05;;;;;;;1.45;0.63;;;9.40;99.90;;;;;;4990934;28;20019;-75
2022/09/28 05:21:31;;;;;;;1.73;0.68;;;;;;;;;;4990686;28;20375;-76
2022/09/28 05:23:57;;;;;;;1.20;1.17;;;9.40;99.90;;;;;;4990958;28;20117;-75
2022/09/28 05:26:23;;;;;;;0.95;0.90;;;9.50;99.90;;;;;;4990531;28;20034;-76
2022/09/28 05:28:49;;;;;;;1.85;0.80;;;9.50;99.90;;;;;;4990814;28;20046;-76
2022/09/28 05:31:15;;;;;;;1.27;0.93;;;9.50;99.90;;;;;;4990418;28;20029;-75
2022/09/28 05:33:41;;;;;;;1.50;0.82;;;9.40;99.90;;;;;;4998292;28;20062;-75
2022/09/28 05:36:14;;;;;;;1.35;1.25;;;9.50;99.90;;;;;;4992841;28;20288;-75
2022/09/28 05:38:39;;;;;;;2.63;1.02;;;9.50;99.90;;;;;;4995553;28;20037;-77
2022/09/28 05:41:05;;;;;;;0.93;0.90;;;9.50;99.90;;;;;;5017130;28;20023;-78
2022/09/28 05:43:35;;;;;;;3.28;1.55;;;9.50;99.90;;;;;;5002900;28;20255;-76
2022/09/28 05:46:01;;;;;;;1.17;1.17;;;9.50;99.90;;;;;;5013846;28;20041;-76
2022/09/28 05:48:27;;;;;;;7.15;1.15;;;9.50;99.90;;;;;;4999208;28;20026;-75
2022/09/28 05:50:55;;;;;;;1.50;1.40;;;9.50;99.90;;;;;;4991842;28;20022;-76
2022/09/28 05:53:21;;;;;;;1.65;1.50;;;9.60;99.90;;;;;;4991826;28;20360;-75
2022/09/28 05:55:47;;;;;;;1.15;0.95;;;9.50;99.90;;;;;;4995872;28;20550;-81
2022/09/28 05:58:13;;;;;;;2.95;1.38;;;9.60;99.90;;;;;;4995079;28;20256;-81
2022/09/28 06:00:39;;;;;;;1.42;1.33;;;9.50;99.90;;;;;;4996549;28;20030;-79
2022/09/28 06:03:09;;;;;;;3.20;1.77;;;9.60;99.90;;;;;;4995335;28;20569;-80
2022/09/28 06:05:37;;;;;;;3.97;1.08;;;9.60;99.90;;;;;;4995124;28;20513;-81
2022/09/28 06:08:04;;;;;;;1.35;1.17;;;9.70;99.90;;;;;;4994493;28;20042;-79
2022/09/28 06:10:32;;;;;;;3.63;2.22;;;9.60;99.90;;;;;;4999123;28;20018;-80
2022/09/28 06:12:59;;;;;;;2.97;0.98;;;9.70;99.90;;;;;;4997227;28;20057;-81
2022/09/28 06:15:27;;;;;;;1.77;1.60;;;9.70;99.90;;;;;;4994511;28;20010;-77
2022/09/28 06:18:01;;;;;;;5.22;2.13;;;9.70;99.90;;;;;;4994405;28;20220;-81
2022/09/28 06:20:30;;;;;;;0.55;0.55;;;9.80;99.90;;;;;;4994141;28;20023;-80
2022/09/28 06:22:56;;;;;;;9.85;1.55;;;9.90;99.90;;;;;;4994783;28;20101;-79
2022/09/28 06:25:22;;;;;;;0.10;0.10;;;10.00;99.90;;;;;;4993914;28;20378;-80
2022/09/28 06:27:58;;;;;;;3.13;1.63;;;10.20;99.90;;;;;;4993239;28;20069;-80
2022/09/28 06:30:28;;;;;;;0.22;0.13;;;10.40;99.90;;;;;;4993394;28;20026;-78
2022/09/28 06:32:55;;;;;;;3.53;0.65;;;10.60;99.90;;;;;;4997442;28;20046;-81
2022/09/28 06:35:22;;;;;;;4.38;0.55;;;10.60;99.90;;;;;;4996423;28;20464;-76
2022/09/28 06:37:48;;;;;;;9.05;0.63;;;10.50;99.90;;;;;;5000689;28;20105;-79
2022/09/28 06:40:14;;;;;;;10.05;0.65;;;10.40;99.90;;;;;;4993861;28;20054;-75
2022/09/28 06:42:39;;;;;;;1.38;0.85;;;10.30;99.90;;;;;;4992626;28;20061;-75
2022/09/28 06:45:06;;;;;;;0.40;0.30;;;10.30;99.90;;;;;;4992259;28;20515;-75
2022/09/28 06:47:32;;;;;;;0.10;0.10;;;10.20;99.90;;;;;;4992312;28;20038;-77
2022/09/28 06:49:58;;;;;;;0.10;0.10;;;10.30;99.90;;;;;;4992331;28;20053;-75
2022/09/28 06:52:24;;;;;;;0.32;0.32;;;10.20;99.90;;;;;;4992481;28;20030;-75
2022/09/28 06:54:50;;;;;;;0.20;0.20;;;10.20;99.90;;;;;;4992141;28;20087;-76
2022/09/28 06:57:16;;;;;;;0.10;0.10;;;10.20;99.90;;;;;;4992252;28;20495;-77
2022/09/28 06:59:42;;;;;;;0.82;0.60;;;10.20;99.90;;;;;;4991989;28;20026;-77
2022/09/28 07:02:13;;;;;;;0.85;0.70;;;10.20;99.90;;;;;;5006851;28;20069;-76
2022/09/28 07:04:42;;;;;;;0.82;0.35;;;10.30;99.90;;;;;;4990699;28;20576;-76
2022/09/28 07:07:09;;;;;;;0.38;0.38;;;10.20;99.90;;;;;;4991992;28;20363;-75
2022/09/28 07:09:35;;;;;;;4.30;1.55;;;10.20;99.90;;;;;;4991839;28;20094;-76
2022/09/28 07:12:03;;;;;;;0.25;0.17;;;10.20;99.90;;;;;;4992291;28;20019;-77
2022/09/28 07:14:31;;;;;;;0.20;0.20;;;10.30;99.90;;;;;;4991775;28;20019;-75
2022/09/28 07:16:57;;;;;;;0.45;0.13;;;10.30;99.90;;;;;;4991669;28;20023;-75
2022/09/28 07:19:22;;;;;;;0.20;0.20;;;10.30;99.90;;;;;;4992398;28;20033;-75
2022/09/28 07:21:51;;;;;;;0.13;0.13;;;12.20;99.90;;;;;;4991944;28;20411;-75
2022/09/28 07:24:17;;;;;;;0.03;0.03;;;10.40;99.90;;;;;;4991557;28;20559;-76
2022/09/28 07:26:44;;;;;;;0.00;0.00;;;10.40;99.90;;;;;;4992776;28;20307;-75
2022/09/28 07:29:13;;;;;;;0.10;0.10;;;10.40;99.90;;;;;;4991968;28;20018;-79
2022/09/28 07:31:39;;;;;;;0.35;0.20;;;10.50;99.90;;;;;;4991951;28;20034;-79
2022/09/28 07:34:05;;;;;;;0.55;0.55;;;10.70;99.90;;;;;;4992157;28;20034;-79
2022/09/28 07:36:35;;;;;;;4.72;1.38;;;10.50;99.90;;;;;;4991993;28;20061;-79
2022/09/28 07:39:02;;;;;;;0.23;0.23;;;10.40;99.90;;;;;;5006906;28;20019;-79
2022/09/28 07:41:33;;;;;;;0.45;0.20;;;10.40;99.90;;;;;;4991709;28;20265;-76
2022/09/28 07:44:06;;;;;;;0.10;0.10;;;10.40;99.90;;;;;;4991351;28;20022;-78
2022/09/28 07:46:36;;;;;;;0.17;0.17;;;10.50;99.90;;;;;;4991080;28;20038;-76
2022/09/28 07:49:04;;;;;;;0.35;0.35;;;10.40;99.90;;;;;;4992873;28;20022;-80
2022/09/28 07:51:31;;;;;;;0.80;0.22;;;10.40;99.90;;;;;;4992158;28;20058;-77
2022/09/28 07:53:57;;;;;;;0.40;0.40;;;10.30;99.90;;;;;;4991508;28;20019;-78
2022/09/28 07:56:24;;;;;;;1.65;1.58;;;10.30;99.90;;;;;;4991377;28;20092;-77
2022/09/28 07:58:50;;;;;;;2.35;1.00;;;10.30;99.90;;;;;;4991804;28;20030;-75
2022/09/28 08:01:17;;;;;;;9.68;1.23;;;10.30;99.90;;;;;;4992333;28;20018;-76
2022/09/28 08:03:44;;;;;;;1.10;1.00;;;10.30;99.90;;;;;;4992827;28;20261;-75
2022/09/28 08:06:14;;;;;;;10.27;1.77;;;10.30;99.90;;;;;;4990834;28;20144;-75
2022/09/28 08:08:43;;;;;;;1.40;1.30;;;10.20;99.90;;;;;;4992288;28;20029;-75
2022/09/28 08:11:14;;;;;;;0.22;0.22;;;10.30;99.90;;;;;;4992521;28;20026;-75
2022/09/28 08:13:40;;;;;;;0.50;0.50;;;10.20;99.90;;;;;;4990840;28;20479;-76
2022/09/28 08:16:07;;;;;;;0.82;0.82;;;10.20;99.90;;;;;;4989815;28;20034;-75
2022/09/28 08:18:34;;;;;;;0.90;0.90;;;10.20;99.90;;;;;;4990852;28;20021;-75
2022/09/28 08:23:48;;;;;;;0.50;0.50;;;10.30;99.90;;;;;;4991289;28;20034;-76
2022/09/28 08:26:15;;;;;;;0.50;0.22;;;10.30;99.90;;;;;;4991243;28;20033;-77
2022/09/28 08:28:42;;;;;;;0.63;0.52;;;10.30;99.90;;;;;;4990810;28;20026;-77
2022/09/28 08:31:08;;;;;;;0.73;0.60;;;10.30;99.90;;;;;;4990623;28;20046;-76
2022/09/28 08:33:34;;;;;;;6.90;0.98;;;10.40;99.90;;;;;;4990601;28;20654;-76
2022/09/28 08:36:01;;;;;;;1.50;0.57;;;10.40;99.90;;;;;;4990698;28;20030;-76
2022/09/28 08:38:29;;;;;;;1.88;1.00;;;10.50;99.90;;;;;;4990598;28;20069;-75
2022/09/28 08:41:08;;;;;;;0.82;0.80;;;10.40;99.90;;;;;;4994418;28;20084;-75
2022/09/28 08:43:43;;;;;;;0.65;0.32;;;10.50;99.90;;;;;;4994441;28;20427;-75
2022/09/28 08:46:11;;;;;;;0.30;0.30;;;;;;;;;;4994743;28;20027;-75
2022/09/28 08:48:52;;;;;;;0.30;0.30;;;10.50;99.90;;;;;;4994503;28;20100;-75
2022/09/28 08:51:32;;;;;;;2.28;0.70;;;10.50;99.90;;;;;;4994719;28;20483;-75
2022/09/28 08:54:21;;;;;;;1.42;0.65;;;10.50;99.90;;;;;;4994287;28;20546;-75
2022/09/28 08:56:53;;;;;;;1.75;1.08;;;10.50;99.90;;;;;;4994160;28;20084;-75
2022/09/28 08:59:42;;;;;;;1.17;0.95;;;10.60;99.90;;;;;;4994097;28;20042;-75
2022/09/28 09:02:33;;;;;;;0.80;0.30;;;10.60;99.90;;;;;;4994281;28;20023;-75
2022/09/28 09:05:05;;;;;;;1.15;0.52;;;10.60;99.90;;;;;;4994048;28;20107;-75
2022/09/28 09:07:48;;;;;;;1.75;0.43;;;10.70;99.90;;;;;;4994083;28;20089;-75
2022/09/28 09:11:00;;;;;;;0.55;0.55;;;10.70;99.90;;;;;;4993990;28;20028;-75
2022/09/28 09:13:49;;;;;;;0.50;0.50;;;10.40;99.90;;;;;;4985489;28;20125;-75
2022/09/28 09:16:38;;;;;;;1.02;0.50;;;10.70;99.90;;;;;;4994307;28;20022;-75
2022/09/28 09:19:29;;;;;;;2.20;0.40;;;10.80;99.90;;;;;;5009229;28;20045;-75
2022/09/28 09:22:04;;;;;;;0.65;0.47;;;10.90;99.90;;;;;;4978104;28;20503;-76
2022/09/28 09:24:33;;;;;;;5.13;0.77;;;11.10;99.90;;;;;;4993890;28;20033;-75
2022/09/28 09:27:15;;;;;;;1.60;0.30;;;11.20;99.90;;;;;;4993857;28;20269;-77
2022/09/28 09:30:01;;;;;;;1.65;0.47;;;11.10;99.90;;;;;;4993696;28;20565;-75
2022/09/28 09:32:44;;;;;;;0.75;0.63;;;11.20;99.90;;;;;;4993320;28;20589;-77
2022/09/28 09:35:43;;;;;;;2.58;0.52;;;11.10;99.90;;;;;;4993662;28;20030;-75
2022/09/28 09:38:35;;;;;;;1.25;0.52;;;11.10;99.90;;;;;;4993751;28;20438;-76
2022/09/28 09:41:31;;;;;;;0.22;0.22;;;11.10;99.90;;;;;;4993659;28;20026;-75
2022/09/28 09:44:08;;;;;;;0.68;0.28;;;11.10;99.90;;;;;;4993624;28;20054;-75
2022/09/28 09:46:35;;;;;;;1.33;1.17;;;11.00;99.90;;;;;;4991858;28;20373;-75
2022/09/28 09:49:38;;;;;;;0.20;0.20;;;10.90;99.90;;;;;;4993464;28;20100;-76
2022/09/28 09:52:18;;;;;;;0.30;0.30;;;10.80;99.90;;;;;;4970644;28;20191;-76
2022/09/28 09:55:13;;;;;;;1.75;0.82;;;10.70;99.90;;;;;;4993635;28;20022;-75
2022/09/28 09:57:46;;;;;;;1.92;0.82;;;10.60;99.90;;;;;;4993383;28;20022;-76
2022/09/28 10:00:14;;;;;;;0.47;0.47;;;10.60;99.90;;;;;;4993752;28;20053;-77
2022/09/28 10:02:41;;;;;;;0.77;0.77;;;10.50;99.90;;;;;;4994558;28;20490;-79
2022/09/28 10:05:09;;;;;;;0.40;0.40;;;10.50;99.90;;;;;;4993829;28;20033;-75
2022/09/28 10:08:13;;;;;;;5.85;0.77;;;10.50;99.90;;;;;;4991683;28;20030;-75
2022/09/28 10:11:07;;;;;;;0.43;0.10;;;10.50;99.90;;;;;;4992417;28;20033;-75
2022/09/28 10:13:39;;;;;;;0.10;0.10;;;10.50;99.90;;;;;;4989004;28;20575;-76
2022/09/28 10:16:07;;;;;;;0.32;0.25;;;10.50;99.90;;;;;;4993680;28;20482;-75
2022/09/28 10:18:33;;;;;;;0.10;0.10;;;10.50;99.90;;;;;;4993526;28;20333;-77
2022/09/28 10:20:59;;;;;;;0.25;0.20;;;10.40;99.90;;;;;;4993029;28;20364;-75
2022/09/28 10:23:29;;;;;;;0.50;0.50;;;10.40;99.90;;;;;;4992731;28;20032;-78
2022/09/28 10:26:28;;;;;;;0.50;0.50;;;10.40;99.90;;;;;;4992797;28;20031;-78
2022/09/28 10:28:56;;;;;;;2.70;0.30;;;10.60;99.90;;;;;;4985198;28;20038;-77
2022/09/28 10:31:47;;;;;;;0.28;0.28;;;10.50;99.90;;;;;;4991942;28;20037;-76
2022/09/28 10:34:15;;;;;;;0.45;0.45;;;10.50;99.90;;;;;;4991546;28;20044;-75
2022/09/28 10:37:00;;;;;;;0.45;0.20;;;10.40;99.90;;;;;;4992810;28;20629;-78
2022/09/28 10:39:29;;;;;;;1.08;0.68;;;10.40;99.90;;;;;;4992388;28;20061;-75
2022/09/28 10:41:57;;;;;;;0.40;0.25;;;10.50;99.90;;;;;;4992574;28;20110;-77
2022/09/28 10:44:24;;;;;;;0.38;0.35;;;10.40;99.90;;;;;;4992197;28;20431;-77
2022/09/28 10:47:02;;;;;;;0.22;0.22;;;10.40;99.90;;;;;;4992434;28;20521;-77
2022/09/28 10:49:37;;;;;;;0.35;0.35;;;10.40;99.90;;;;;;4992520;28;20026;-78
2022/09/28 10:52:04;;;;;;;0.30;0.30;;;10.40;99.90;;;;;;4992504;28;20333;-79
2022/09/28 10:54:31;;;;;;;5.82;1.15;;;10.30;99.90;;;;;;4992331;28;20494;-77
2022/09/28 10:56:58;;;;;;;0.40;0.40;;;10.20;99.90;;;;;;4992130;28;20049;-79
2022/09/28 10:59:41;;;;;;;0.95;0.82;;;10.10;99.90;;;;;;4991713;28;20022;-79
2022/09/28 11:02:27;;;;;;;1.58;0.63;;;10.10;99.90;;;;;;4991663;28;20026;-79
2022/09/28 11:04:57;;;;;;;0.40;0.40;;;10.00;99.90;;;;;;4990550;28;20415;-79
2022/09/28 11:07:27;;;;;;;4.07;0.65;;;10.10;99.90;;;;;;4991804;28;20034;-79
2022/09/28 11:09:54;;;;;;;1.25;1.17;;;10.10;99.90;;;;;;4990610;28;20031;-79
2022/09/28 11:12:23;;;;;;;0.20;0.20;;;10.10;99.90;;;;;;5006822;28;20041;-78
2022/09/28 11:14:56;;;;;;;3.65;0.30;;;10.10;99.90;;;;;;4990189;28;20026;-79
2022/09/28 11:17:40;;;;;;;0.55;0.55;;;10.10;99.90;;;;;;4990253;28;20152;-79
2022/09/28 11:20:33;;;;;;;0.55;0.55;;;10.00;99.90;;;;;;4991586;28;20046;-79
2022/09/28 11:23:19;;;;;;;0.75;0.75;;;10.00;99.90;;;;;;4990330;28;20026;-78
2022/09/28 11:26:20;;;;;;;0.85;0.63;;;10.10;99.90;;;;;;4991537;28;20076;-79
2022/09/28 11:28:51;;;;;;;3.72;2.05;;;10.10;99.90;;;;;;4930621;29;20121;-79
2022/09/28 11:31:24;;;;;;;4.30;0.65;;;10.10;99.90;;;;;;4979980;28;20065;-80
2022/09/28 11:33:59;;;;;;;2.38;0.65;;;9.90;99.90;;;;;;4970472;28;20047;-78
2022/09/28 11:36:33;;;;;;;2.65;0.75;;;9.70;99.90;;;;;;4971857;28;20438;-78
2022/09/28 11:39:18;;;;;;;1.13;0.60;;;9.70;99.90;;;;;;4971794;28;20085;-79
2022/09/28 11:42:17;;;;;;;0.20;0.20;;;9.70;99.90;;;;;;4986549;28;20027;-79
2022/09/28 11:44:45;;;;;;;;;;;9.80;99.90;;;;;;4970588;28;20027;-79
2022/09/28 11:47:48;;;;;;;1.65;1.48;;;9.90;99.90;;;;;;4971610;28;19918;-79
2022/09/28 11:50:33;;;;;;;1.23;0.65;;;10.00;99.90;;;;;;4970725;28;20065;-79
2022/09/28 11:53:25;;;;;;;3.60;0.32;;;10.10;99.90;;;;;;4971228;28;20027;-79
2022/09/28 11:55:56;;;;;;;0.20;0.20;;;10.00;99.90;;;;;;4980570;28;20318;-78
2022/09/28 11:58:43;;;;;;;0.60;0.60;;;10.20;99.90;;;;;;4995343;28;20034;-79
2022/09/28 12:01:22;;;;;;;2.55;0.40;;;10.30;99.90;;;;;;4968507;28;20054;-79
2022/09/28 12:03:58;;;;;;;0.45;0.17;;;10.20;99.90;;;;;;4971518;28;20030;-79
2022/09/28 12:06:50;;;;;;;0.30;0.30;;;10.40;99.90;;;;;;4968220;28;20062;-79
2022/09/28 12:09:31;;;;;;;0.63;0.40;;;10.40;99.90;;;;;;4971210;28;20031;-79
2022/09/28 12:12:01;;;;;;;1.05;0.28;;;10.50;99.90;;;;;;4969934;28;20383;-79
2022/09/28 12:14:34;;;;;;;0.73;0.73;;;10.50;99.90;;;;;;4968668;28;20030;-79
2022/09/28 12:17:16;;;;;;;0.25;0.25;;;10.50;99.90;;;;;;4986457;28;20019;-79
2022/09/28 12:20:00;;;;;;;4.40;0.30;;;10.30;99.90;;;;;;4988700;28;20041;-78
2022/09/28 12:22:41;;;;;;;0.22;0.22;;;10.30;99.90;;;;;;4988836;28;20098;-77
2022/09/28 12:25:15;;;;;;;0.70;0.45;;;10.20;99.90;;;;;;4988238;28;20026;-80
2022/09/28 12:28:03;;;;;;;0.68;0.30;;;10.30;99.90;;;;;;4989978;28;20034;-81
2022/09/28 12:30:36;;;;;;;0.23;0.23;;;12.00;99.90;;;;;;4983666;28;20038;-80
2022/09/28 12:33:14;;;;;;;0.10;0.10;;;10.40;99.90;;;;;;4967868;28;20046;-79
2022/09/28 12:35:43;;;;;;;1.60;0.40;;;10.40;99.90;;;;;;4967913;28;20074;-78
2022/09/28 12:38:36;;;;;;;2.10;0.25;;;10.40;99.90;;;;;;4987346;28;20034;-77
2022/09/28 12:41:58;;;;;;;1.55;1.45;;;10.20;99.90;;;;;;4986942;28;20081;-78
2022/09/28 12:44:48;;;;;;;0.20;0.20;;;10.20;99.90;;;;;;4928151;29;20038;-79
2022/09/28 12:47:32;;;;;;;0.10;0.10;;;10.20;99.90;;;;;;4934855;29;20047;-76
2022/09/28 12:49:58;;;;;;;0.30;0.30;;;10.20;99.90;;;;;;4982927;28;20038;-75
2022/09/28 12:52:47;;;;;;;0.30;0.30;;;10.30;99.90;;;;;;4999462;28;20345;-75
2022/09/28 12:55:27;;;;;;;4.20;0.50;;;10.20;99.90;;;;;;4999889;28;20022;-80
2022/09/28 12:58:21;;;;;;;0.40;0.40;;;10.20;99.90;;;;;;4997073;28;20038;-75
2022/09/28 13:01:07;;;;;;;1.08;0.85;;;10.10;99.90;;;;;;4987944;28;20085;-75
2022/09/28 13:03:47;;;;;;;0.93;0.80;;;10.20;99.90;;;;;;4986202;28;20042;-76
2022/09/28 13:06:23;;;;;;;0.10;0.10;;;10.20;99.90;;;;;;4987365;28;20026;-77
2022/09/28 13:09:15;;;;;;;0.85;0.32;;;10.00;99.90;;;;;;4981675;28;20041;-75
2022/09/28 13:11:43;;;;;;;0.82;0.73;;;10.20;99.90;;;;;;4967892;28;20023;-76
2022/09/28 13:14:29;;;;;;;1.75;0.63;;;10.20;99.90;;;;;;4975073;28;20352;-76
2022/09/28 13:16:55;;;;;;;0.30;0.30;;;10.10;99.90;;;;;;4987174;28;20022;-76
2022/09/28 13:19:44;;;;;;;2.17;0.30;;;10.20;99.90;;;;;;4987024;28;20121;-75
2022/09/28 13:22:36;;;;;;;0.10;0.10;;;10.30;99.90;;;;;;4993296;28;20233;-76
2022/09/28 13:25:31;;;;;;;0.20;0.20;;;10.30;99.90;;;;;;4992677;28;20042;-76
2022/09/28 13:28:06;;;;;;;0.28;0.28;;;10.30;99.90;;;;;;4998213;28;20050;-77
2022/09/28 13:30:37;;;;;;;2.20;1.25;;;10.30;99.90;;;;;;4998676;28;20350;-80
2022/09/28 13:33:06;;;;;;;0.73;0.32;;;10.20;99.90;;;;;;5002496;28;20050;-80
2022/09/28 13:35:35;;;;;;;0.53;0.53;;;10.20;99.90;;;;;;5002521;28;20337;-80
2022/09/28 13:38:18;;;;;;;0.90;0.45;;;10.30;99.90;;;;;;4999742;28;20061;-80